Time;durP1;ratioP1;P1;durP2;ratioP2;P2;SDS_P1;SDS_P2;PMS_P1;PMS_P2;Temp;Humidity;BMP_temperature;BMP_pressure;BME280_temperature;BME280_humidity;BME280_pressure;Samples;Min_cycle;Max_cycle;Signal;HPM_P1;HPM_P2
2022/02/06 00:00:39;;;;;;;;;;;;;;;2.21;84.35;98375.73;1658510;86;24985;-88
2022/02/06 00:03:07;;;;;;;;;;;;;;;2.21;84.34;98371.02;1655893;85;20356;-88
2022/02/06 00:05:33;;;;;;;;;;;;;;;2.20;84.35;98368.04;1657526;86;26014;-85
2022/02/06 00:08:07;;;;;;;;;;;;;;;2.22;84.35;98367.55;1652387;86;24299;-87
2022/02/06 00:10:30;;;;;;;;;;;;;;;2.21;84.35;98362.83;1657115;86;20217;-87
2022/02/06 00:12:56;;;;;;;;;;;;;;;2.21;84.34;98357.66;1658023;86;24803;-85
2022/02/06 00:15:27;;;;;;;;;;;;;;;2.22;84.31;98354.64;1657292;86;21956;-87
2022/02/06 00:17:54;;;;;;;;;;;;;;;2.21;84.31;98353.80;1655767;86;26091;-87
2022/02/06 00:20:23;;;;;;;;;;;;;;;2.19;84.29;98354.29;1654378;86;24388;-87
2022/02/06 00:22:56;;;;;;;;;;;;;;;2.19;84.27;98349.13;1655513;85;20306;-85
2022/02/06 00:30:40;;;;;;;;;;;;;;;2.23;84.37;98332.64;1655677;86;26746;-88
2022/02/06 00:33:15;;;;;;;;;;;;;;;2.24;84.42;98335.59;1656542;86;24439;-87
2022/02/06 00:35:54;;;;;;;;;;;;;;;2.27;84.46;98324.32;1654533;86;20354;-89
2022/02/06 00:43:12;;;;;;;;;;;;;;;2.32;84.45;98321.11;1653117;86;26022;-86
2022/02/06 00:45:39;;;;;;;;;;;;;;;2.33;84.45;98312.47;1657499;86;24435;-85
2022/02/06 00:48:05;;;;;;;;;;;;;;;2.35;84.45;98307.62;1656032;86;20272;-86
2022/02/06 00:50:33;;;;;;;;;;;;;;;2.38;84.45;98307.97;1658261;86;24791;-88
2022/02/06 00:53:06;;;;;;;;;;;;;;;2.40;84.45;98303.59;1657012;86;22662;-87
2022/02/06 00:55:29;;;;;;;;;;;;;;;2.41;84.44;98295.77;1657040;86;26185;-88
2022/02/06 00:57:56;;;;;;;;;;;;;;;2.43;84.41;98297.84;1656139;86;25723;-88
2022/02/06 01:00:23;;;;;;;;;;;;;;;2.44;84.41;98294.81;1656572;86;20787;-88
2022/02/06 01:02:53;;;;;;;;;;;;;;;2.46;84.41;98299.45;1656189;86;24310;-88
2022/02/06 01:05:19;;;;;;;;;;;;;;;2.46;84.39;98289.97;1657414;86;21882;-86
2022/02/06 01:07:53;;;;;;;;;;;;;;;2.48;84.38;98281.72;1656647;86;26050;-88
2022/02/06 01:10:19;;;;;;;;;;;;;;;2.53;84.44;98288.83;1657994;86;25460;-83
2022/02/06 01:12:54;;;;;;;;;;;;;;;2.57;84.47;98284.37;1655331;85;20218;-84
2022/02/06 01:15:22;;;;;;;;;;;;;;;2.61;84.49;98285.11;1656345;86;25335;-88
2022/02/06 01:18:03;;;;;;;;;;;;;;;2.65;84.51;98284.91;1655152;86;21594;-83
2022/02/06 01:20:32;;;;;;;;;;;;;;;2.69;84.53;98273.55;1654994;85;26086;-88
2022/02/06 01:23:03;;;;;;;;;;;;;;;2.73;84.56;98269.08;1656552;85;24479;-87
2022/02/06 01:25:38;;;;;;;;;;;;;;;2.76;84.56;98265.09;1655738;86;20247;-87
2022/02/06 01:28:00;;;;;;;;;;;;;;;2.79;84.58;98267.09;1652242;86;24761;-84
2022/02/06 01:30:40;;;;;;;;;;;;;;;2.81;84.60;98259.28;1657356;86;22043;-87
2022/02/06 01:32:56;;;;;;;;;;;;;;;2.85;84.61;98255.66;1653862;86;26645;-87
2022/02/06 01:35:28;;;;;;;;;;;;;;;2.88;84.62;98251.67;1654822;86;24474;-85
2022/02/06 01:37:58;;;;;;;;;;;;;;;2.91;84.60;98252.38;1656475;86;20222;-88
2022/02/06 01:40:31;;;;;;;;;;;;;;;2.93;84.61;98249.28;1656489;86;25687;-88
2022/02/06 01:42:56;;;;;;;;;;;;;;;2.96;84.62;98234.08;1655316;86;22010;-84
2022/02/06 01:45:28;;;;;;;;;;;;;;;3.01;84.62;98231.30;1654432;86;25990;-88
2022/02/06 02:01:52;;;;;;;;;;;;;;;3.15;84.63;98209.59;1644563;87;25147;-87
2022/02/06 02:04:17;;;;;;;;;;;;;;;3.19;84.62;98209.37;1644883;86;20537;-84
2022/02/06 02:07:17;;;;;;;;;;;;;;;3.21;84.62;98195.94;1646672;87;24817;-87
2022/02/06 02:20:35;;;;;;;;;;;;;;;3.28;84.65;98190.86;1647898;87;24867;-84
2022/02/06 02:25:12;;;;;;;;;;;;;;;3.31;84.62;98173.09;1610485;88;26067;-88
2022/02/06 02:30:33;;;;;;;;;;;;;;;3.35;84.63;98178.05;1648944;87;20395;-87
2022/02/06 02:46:08;;;;;;;;;;;;;;;3.42;84.58;98148.03;1646543;87;24936;-88
2022/02/06 02:48:35;;;;;;;;;;;;;;;3.43;84.54;98154.44;1645942;85;22078;-88
2022/02/06 02:51:05;;;;;;;;;;;;;;;3.43;84.51;98158.32;1625671;87;26013;-89
2022/02/06 02:53:35;;;;;;;;;;;;;;;3.42;84.48;98142.41;1647680;87;24637;-84
2022/02/06 02:56:15;;;;;;;;;;;;;;;3.43;84.46;98151.86;1648335;86;20207;-84
2022/02/06 03:01:07;;;;;;;;;;;;;;;3.41;84.39;98157.55;1648914;87;22020;-88
2022/02/06 03:03:35;;;;;;;;;;;;;;;3.41;84.35;98157.55;1646941;86;26099;-88
2022/02/06 03:05:58;;;;;;;;;;;;;;;3.44;84.34;98164.34;1646993;85;25171;-87
2022/02/06 03:08:25;;;;;;;;;;;;;;;3.43;84.32;98163.50;1647036;87;20251;-89
2022/02/06 03:10:53;;;;;;;;;;;;;;;3.44;84.35;98154.80;1647338;87;24922;-85
2022/02/06 03:13:22;;;;;;;;;;;;;;;3.45;84.38;98150.47;1646814;86;22140;-87
2022/02/06 03:18:29;;;;;;;;;;;;;;;3.47;84.42;98146.92;1646616;87;24606;-88
2022/02/06 03:20:53;;;;;;;;;;;;;;;3.48;84.42;98151.64;1646496;87;20260;-89
2022/02/06 03:23:25;;;;;;;;;;;;;;;3.48;84.41;98146.02;1646217;87;24931;-88
2022/02/06 03:25:53;;;;;;;;;;;;;;;3.49;84.40;98143.78;1647288;87;21821;-85
2022/02/06 03:28:20;;;;;;;;;;;;;;;3.51;84.42;98144.56;1646703;87;26285;-86
2022/02/06 03:30:46;;;;;;;;;;;;;;;3.52;84.40;98139.78;1646856;86;24488;-88
2022/02/06 03:33:12;;;;;;;;;;;;;;;3.52;84.37;98142.37;1647846;87;20219;-88
2022/02/06 03:35:39;;;;;;;;;;;;;;;3.51;84.36;98131.63;1645404;87;24765;-85
2022/02/06 03:38:07;;;;;;;;;;;;;;;3.51;84.36;98127.75;1644910;86;20275;-87
2022/02/06 03:40:51;;;;;;;;;;;;;;;3.51;84.31;98127.75;1645672;87;25959;-87
2022/02/06 03:43:14;;;;;;;;;;;;;;;3.51;84.25;98126.45;1645384;85;24532;-88
2022/02/06 03:45:49;;;;;;;;;;;;;;;3.52;84.25;98120.83;1645686;87;20265;-88
2022/02/06 03:48:26;;;;;;;;;;;;;;;3.53;84.21;98122.06;1646883;85;24816;-87
2022/02/06 03:50:52;;;;;;;;;;;;;;;3.52;84.18;98122.12;1651108;86;22015;-87
2022/02/06 03:53:20;;;;;;;;;;;;;;;3.52;84.14;98124.27;1653729;86;26006;-88
2022/02/06 03:55:47;;;;;;;;;;;;;;;3.54;84.13;98120.31;1652567;85;24471;-88
2022/02/06 03:58:14;;;;;;;;;;;;;;;3.55;84.12;98107.73;1651625;86;20252;-89
2022/02/06 04:00:40;;;;;;;;;;;;;;;3.55;84.11;98112.46;1650442;86;24718;-89
2022/02/06 04:03:06;;;;;;;;;;;;;;;3.56;84.09;98100.37;1648213;86;22037;-88
2022/02/06 04:05:33;;;;;;;;;;;;;;;3.57;84.14;98099.46;1649770;86;25974;-88
2022/02/06 04:07:59;;;;;;;;;;;;;;;3.56;84.14;98092.16;1652148;86;24543;-88
2022/02/06 04:10:34;;;;;;;;;;;;;;;3.58;84.12;98093.38;1649504;86;20437;-85
2022/02/06 04:12:54;;;;;;;;;;;;;;;3.59;84.12;98080.38;1650032;86;24798;-88
2022/02/06 04:15:25;;;;;;;;;;;;;;;3.59;84.10;98081.68;1648671;86;22083;-87
2022/02/06 04:17:56;;;;;;;;;;;;;;;3.59;84.04;98073.08;1647466;86;26018;-88
2022/02/06 04:20:16;;;;;;;;;;;;;;;3.59;84.07;98060.14;1646094;86;24466;-89
2022/02/06 04:22:45;;;;;;;;;;;;;;;3.60;84.09;98049.69;1651037;85;20226;-89
2022/02/06 04:25:11;;;;;;;;;;;;;;;3.63;84.08;98061.66;1649763;86;25511;-85
2022/02/06 04:27:38;;;;;;;;;;;;;;;3.63;84.07;98050.86;1651741;86;22028;-87
2022/02/06 04:30:13;;;;;;;;;;;;;;;3.66;84.09;98045.52;1648620;86;26177;-88
2022/02/06 04:32:39;;;;;;;;;;;;;;;3.68;84.11;98044.16;1647028;86;24444;-86
2022/02/06 04:35:09;;;;;;;;;;;;;;;3.67;84.10;98040.73;1650936;86;20450;-88
2022/02/06 04:37:45;;;;;;;;;;;;;;;3.70;84.06;98041.05;1648376;86;25618;-90
2022/02/06 04:40:17;;;;;;;;;;;;;;;3.69;84.03;98032.91;1648455;86;21826;-89
2022/02/06 04:46:08;;;;;;;;;;;;;;;3.71;83.94;98029.77;1646535;86;24536;-85
2022/02/06 04:51:39;;;;;;;;;;;;;;;3.69;83.80;98019.52;1609485;88;24728;-89
2022/02/06 05:17:58;;;;;;;;;;;;;;;3.70;83.21;97987.56;1597520;89;24784;-85
2022/02/06 05:23:01;;;;;;;;;;;;;;;3.69;83.15;97971.64;1598560;89;26108;-88
2022/02/06 05:25:43;;;;;;;;;;;;;;;3.70;83.13;97968.61;1591370;89;24471;-82
2022/02/06 05:28:22;;;;;;;;;;;;;;;3.70;83.11;97959.55;1597910;89;20256;-87
2022/02/06 05:30:37;;;;;;;;;;;;;;;3.70;83.09;97954.38;1596745;89;24746;-87
2022/02/06 05:35:24;;;;;;;;;;;;;;;3.72;83.06;97943.02;1608344;88;26648;-85
2022/02/06 05:37:50;;;;;;;;;;;;;;;3.74;83.06;97943.78;1588512;89;24616;-87
2022/02/06 05:40:17;;;;;;;;;;;;;;;3.74;83.06;97920.50;1596174;89;20267;-87
2022/02/06 05:42:43;;;;;;;;;;;;;;;3.74;83.05;97925.67;1624888;87;24833;-85
2022/02/06 05:45:09;;;;;;;;;;;;;;;3.74;83.03;97921.79;1632931;87;21995;-83
2022/02/06 05:47:36;;;;;;;;;;;;;;;3.75;83.06;97909.23;1603738;87;26019;-83
2022/02/06 05:50:07;;;;;;;;;;;;;;;3.76;83.03;97911.38;1627762;85;24479;-85
2022/02/06 05:52:31;;;;;;;;;;;;;;;3.78;83.00;97903.89;1608272;87;20295;-85
2022/02/06 05:54:58;;;;;;;;;;;;;;;3.79;83.02;97900.84;1624225;87;24792;-83
2022/02/06 05:57:26;;;;;;;;;;;;;;;3.78;83.02;97894.83;1629054;86;22019;-86
2022/02/06 05:59:52;;;;;;;;;;;;;;;3.79;83.04;97896.97;1586263;89;26167;-87
2022/02/06 06:02:18;;;;;;;;;;;;;;;3.78;83.06;97900.01;1603223;89;24619;-82
2022/02/06 06:04:44;;;;;;;;;;;;;;;3.77;83.07;97894.45;1603877;89;20298;-88
2022/02/06 06:07:10;;;;;;;;;;;;;;;3.78;83.08;97892.25;1604778;89;24809;-87
2022/02/06 06:09:39;;;;;;;;;;;;;;;3.76;83.06;97890.18;1603845;89;21996;-82
2022/02/06 06:12:06;;;;;;;;;;;;;;;3.77;83.01;97900.08;1605198;89;26156;-82
2022/02/06 06:14:32;;;;;;;;;;;;;;;3.76;82.93;97895.84;1601657;89;24447;-86
2022/02/06 06:16:58;;;;;;;;;;;;;;;3.75;82.89;97901.93;1599211;89;20313;-83
2022/02/06 06:19:25;;;;;;;;;;;;;;;3.73;82.83;97891.64;1603341;88;25488;-85
2022/02/06 06:21:58;;;;;;;;;;;;;;;3.72;82.76;97890.42;1624124;86;22249;-83
2022/02/06 06:24:26;;;;;;;;;;;;;;;3.73;82.73;97901.16;1629802;87;26019;-83
2022/02/06 06:26:52;;;;;;;;;;;;;;;3.74;82.72;97903.67;1627731;87;24521;-84
2022/02/06 06:29:18;;;;;;;;;;;;;;;3.72;82.70;97896.89;1627654;87;20274;-84
2022/02/06 06:31:45;;;;;;;;;;;;;;;3.71;82.64;97892.17;1624106;86;24788;-83
2022/02/06 06:34:11;;;;;;;;;;;;;;;3.71;82.54;97880.98;1629003;86;21986;-83
2022/02/06 06:36:39;;;;;;;;;;;;;;;3.71;82.51;97881.82;1628452;87;25881;-84
2022/02/06 06:39:06;;;;;;;;;;;;;;;3.70;82.47;97881.47;1631829;87;25194;-84
2022/02/06 06:41:32;;;;;;;;;;;;;;;3.70;82.43;97879.33;1631870;86;20382;-84
2022/02/06 06:43:58;;;;;;;;;;;;;;;3.70;82.40;97875.45;1627856;87;25333;-84
2022/02/06 06:46:25;;;;;;;;;;;;;;;3.70;82.38;97867.69;1625860;87;22051;-84
2022/02/06 06:48:51;;;;;;;;;;;;;;;3.70;82.37;97853.00;1624681;87;26148;-84
2022/02/06 06:51:17;;;;;;;;;;;;;;;3.71;82.35;97852.52;1646715;86;24505;-86
2022/02/06 06:53:51;;;;;;;;;;;;;;;3.70;82.34;97850.42;1643270;86;20160;-86
2022/02/06 06:56:27;;;;;;;;;;;;;;;3.71;82.33;97841.72;1643226;86;24830;-85
2022/02/06 06:58:49;;;;;;;;;;;;;;;3.72;82.30;97843.84;1649330;86;22217;-85
2022/02/06 07:03:49;;;;;;;;;;;;;;;3.77;82.29;97853.50;1670077;85;24702;-86
2022/02/06 07:06:15;;;;;;;;;;;;;;;3.78;82.25;97827.55;1671964;86;20218;-85
2022/02/06 07:08:41;;;;;;;;;;;;;;;3.79;82.24;97848.64;1670111;86;24804;-85
2022/02/06 07:11:07;;;;;;;;;;;;;;;3.82;82.20;97829.50;1669828;86;22731;-84
2022/02/06 07:13:33;;;;;;;;;;;;;;;3.87;82.22;97833.17;1669349;86;26173;-84
2022/02/06 07:15:59;;;;;;;;;;;;;;;3.88;82.20;97828.34;1669333;86;24538;-84
2022/02/06 07:18:25;;;;;;;;;;;;;;;3.90;82.16;97805.36;1667051;86;20217;-84
2022/02/06 07:20:52;;;;;;;;;;;;;;;3.93;82.06;97819.91;1669185;84;24826;-87
2022/02/06 07:23:19;;;;;;;;;;;;;;;3.94;81.98;97804.28;1670233;86;22021;-87
2022/02/06 07:25:50;;;;;;;;;;;;;;;3.95;81.86;97787.00;1670738;86;26203;-88
2022/02/06 07:28:17;;;;;;;;;;;;;;;3.95;81.73;97800.78;1670044;86;24146;-88
2022/02/06 07:30:45;;;;;;;;;;;;;;;3.96;81.61;97808.92;1669790;86;20270;-85
2022/02/06 07:33:14;;;;;;;;;;;;;;;3.98;81.52;97804.97;1651808;86;25250;-85
2022/02/06 07:35:42;;;;;;;;;;;;;;;3.99;81.39;97801.44;1668361;86;21938;-83
2022/02/06 07:38:10;;;;;;;;;;;;;;;4.01;81.30;97816.44;1668402;86;25883;-84
2022/02/06 07:40:37;;;;;;;;;;;;;;;4.02;81.24;97815.53;1669627;86;25048;-84
2022/02/06 07:43:04;;;;;;;;;;;;;;;4.04;81.19;97814.97;1670409;86;20334;-84
2022/02/06 07:45:32;;;;;;;;;;;;;;;4.03;81.13;97818.50;1669546;86;24714;-84
2022/02/06 07:47:57;;;;;;;;;;;;;;;4.06;81.11;97821.75;1669298;84;22623;-84
2022/02/06 07:50:26;;;;;;;;;;;;;;;4.08;81.10;97813.91;1660811;85;26023;-84
2022/02/06 07:52:52;;;;;;;;;;;;;;;4.08;81.09;97825.56;1644345;87;24597;-86
2022/02/06 07:55:18;;;;;;;;;;;;;;;4.09;80.99;97829.83;1648587;85;20449;-86
2022/02/06 07:57:44;;;;;;;;;;;;;;;4.10;80.95;97803.83;1652380;87;24811;-86
2022/02/06 08:00:12;;;;;;;;;;;;;;;4.12;80.92;97823.17;1648874;87;22061;-86
2022/02/06 08:02:39;;;;;;;;;;;;;;;4.11;80.86;97826.22;1649694;86;25970;-86
2022/02/06 08:05:05;;;;;;;;;;;;;;;4.12;80.82;97818.00;1650444;86;25085;-86
2022/02/06 08:07:32;;;;;;;;;;;;;;;4.13;80.77;97818.38;1646937;87;20638;-85
2022/02/06 08:10:00;;;;;;;;;;;;;;;4.14;80.72;97811.00;1648493;87;24661;-85
2022/02/06 08:12:34;;;;;;;;;;;;;;;4.14;80.69;97792.41;1647977;87;22576;-85
2022/02/06 08:15:03;;;;;;;;;;;;;;;4.14;80.63;97797.59;1649690;87;26014;-84
2022/02/06 08:17:36;;;;;;;;;;;;;;;4.16;80.59;97795.73;1650424;87;24522;-84
2022/02/06 08:20:04;;;;;;;;;;;;;;;4.17;80.51;97802.59;1644564;87;20252;-84
2022/02/06 08:22:30;;;;;;;;;;;;;;;4.20;80.50;97804.16;1645316;87;25532;-84
2022/02/06 08:24:57;;;;;;;;;;;;;;;4.20;80.46;97805.00;1650959;87;21772;-86
2022/02/06 08:27:29;;;;;;;;;;;;;;;4.19;80.37;97812.42;1648488;87;26058;-88
2022/02/06 08:29:56;;;;;;;;;;;;;;;4.20;80.29;97803.70;1648050;87;24605;-86
2022/02/06 08:32:26;;;;;;;;;;;;;;;4.21;80.26;97796.77;1644867;87;20582;-86
2022/02/06 08:34:52;;;;;;;;;;;;;;;4.25;80.25;97793.58;1646085;87;25063;-86
2022/02/06 08:37:18;;;;;;;;;;;;;;;4.29;80.27;97787.30;1640748;87;21526;-86
2022/02/06 08:39:45;;;;;;;;;;;;;;;4.30;80.22;97793.70;1640581;87;26167;-86
2022/02/06 08:42:11;;;;;;;;;;;;;;;4.34;80.16;97793.91;1652051;86;24443;-86
2022/02/06 08:44:38;;;;;;;;;;;;;;;4.36;80.12;97780.42;1649591;87;20183;-86
2022/02/06 08:47:06;;;;;;;;;;;;;;;4.39;80.04;97778.94;1647269;87;25453;-86
2022/02/06 08:49:32;;;;;;;;;;;;;;;4.42;79.99;97777.95;1647643;86;21959;-84
2022/02/06 08:52:01;;;;;;;;;;;;;;;4.43;79.94;97777.00;1623070;87;26185;-90
2022/02/06 08:54:32;;;;;;;;;;;;;;;4.38;79.82;97769.95;1612569;87;25259;-87
2022/02/06 08:57:01;;;;;;;;;;;;;;;4.37;79.71;97771.70;1615253;87;20304;-87
2022/02/06 08:59:32;;;;;;;;;;;;;;;4.33;79.61;97774.55;1605805;87;25630;-86
2022/02/06 09:02:01;;;;;;;;;;;;;;;4.29;79.57;97762.24;1613678;87;22004;-87
2022/02/06 09:04:28;;;;;;;;;;;;;;;4.26;79.60;97771.45;1617554;87;26773;-87
2022/02/06 09:07:00;;;;;;;;;;;;;;;4.26;79.66;97757.67;1617717;87;24524;-87
2022/02/06 09:09:24;;;;;;;;;;;;;;;4.25;79.79;97750.84;1619415;87;20633;-86
2022/02/06 09:11:52;;;;;;;;;;;;;;;4.25;79.86;97751.69;1614129;87;24735;-86
2022/02/06 09:14:19;;;;;;;;;;;;;;;4.24;79.94;97737.06;1620933;87;21949;-85
2022/02/06 09:16:51;;;;;;;;;;;;;;;4.26;79.98;97736.95;1621952;87;26097;-87
2022/02/06 09:19:18;;;;;;;;;;;;;;;4.26;79.99;97735.20;1593193;87;24526;-84
2022/02/06 09:21:50;;;;;;;;;;;;;;;4.29;80.04;97730.33;1619603;87;20273;-88
2022/02/06 09:24:17;;;;;;;;;;;;;;;4.30;80.10;97721.19;1593504;87;24848;-84
2022/02/06 09:26:43;;;;;;;;;;;;;;;4.36;80.19;97735.55;1621877;87;22212;-84
2022/02/06 09:29:09;;;;;;;;;;;;;;;4.41;80.27;97726.59;1620297;87;26051;-87
2022/02/06 09:31:37;;;;;;;;;;;;;;;4.44;80.33;97723.82;1622602;87;24508;-87
2022/02/06 09:36:32;;;;;;;;;;;;;;;4.48;80.38;97709.77;1621935;87;25671;-88
2022/02/06 09:38:58;;;;;;;;;;;;;;;4.47;80.38;97717.16;1620870;87;21930;-88
2022/02/06 09:41:24;;;;;;;;;;;;;;;4.46;80.32;97701.27;1619047;87;26026;-88
2022/02/06 09:43:50;;;;;;;;;;;;;;;4.47;80.24;97702.10;1620364;87;24393;-86
2022/02/06 09:46:24;;;;;;;;;;;;;;;4.49;80.25;97697.65;1623906;87;20455;-87
2022/02/06 09:48:51;;;;;;;;;;;;;;;4.48;80.24;97685.15;1621980;87;24755;-88
2022/02/06 09:51:18;;;;;;;;;;;;;;;4.46;80.21;97679.24;1621803;85;22036;-88
2022/02/06 09:53:44;;;;;;;;;;;;;;;4.48;80.24;97678.67;1616764;87;26075;-83
2022/02/06 09:56:12;;;;;;;;;;;;;;;4.45;80.26;97665.08;1623021;87;24394;-84
2022/02/06 09:58:57;;;;;;;;;;;;;;;4.41;80.31;97671.36;1614357;87;20217;-84
2022/02/06 10:01:13;;;;;;;;;;;;;;;4.40;80.41;97654.98;1621957;87;24745;-88
2022/02/06 10:03:44;;;;;;;;;;;;;;;4.40;80.53;97653.69;1624187;87;22896;-84
2022/02/06 10:06:12;;;;;;;;;;;;;;;4.38;80.66;97650.34;1620488;87;26067;-84
2022/02/06 10:08:39;;;;;;;;;;;;;;;4.38;80.82;97636.09;1628986;87;24462;-84
2022/02/06 10:11:14;;;;;;;;;;;;;;;4.38;81.01;97630.91;1621378;87;20324;-86
2022/02/06 10:13:42;;;;;;;;;;;;;;;4.36;81.16;97640.55;1623967;87;24815;-87
2022/02/06 10:16:10;;;;;;;;;;;;;;;4.32;81.34;97633.02;1625088;87;21873;-87
2022/02/06 10:18:36;;;;;;;;;;;;;;;4.28;81.49;97631.08;1627878;87;26694;-88
2022/02/06 10:21:03;;;;;;;;;;;;;;;4.29;81.69;97609.44;1616643;87;25070;-88
2022/02/06 10:24:33;;;;;;;;;;;;;;;4.30;81.90;97624.06;1610403;87;20350;-86
2022/02/06 10:26:27;;;;;;;;;;;;;;;4.33;82.12;97638.12;1622369;87;25254;-86
2022/02/06 10:31:48;;;;;;;;;;;;;;;4.35;82.66;97619.91;1621514;87;26690;-87
2022/02/06 10:34:24;;;;;;;;;;;;;;;4.34;82.92;97611.30;1625101;87;24542;-86
2022/02/06 10:36:52;;;;;;;;;;;;;;;4.35;83.16;97603.91;1620479;87;20491;-88
2022/02/06 10:39:23;;;;;;;;;;;;;;;4.40;83.43;97581.62;1623269;87;24993;-88
2022/02/06 10:41:47;;;;;;;;;;;;;;;4.41;83.71;97590.60;1622236;87;22104;-82
2022/02/06 10:44:14;;;;;;;;;;;;;;;4.46;83.95;97595.51;1614871;87;26040;-83
2022/02/06 10:46:58;;;;;;;;;;;;;;;4.51;84.20;97574.88;1623408;86;21683;-89
2022/02/06 10:49:24;;;;;;;;;;;;;;;4.55;84.45;97569.05;1618539;86;20268;-88
2022/02/06 10:51:58;;;;;;;;;;;;;;;4.60;84.67;97568.31;1638011;85;24742;-88
2022/02/06 10:54:32;;;;;;;;;;;;;;;4.63;84.88;97578.05;1653253;86;22878;-89
2022/02/06 10:57:10;;;;;;;;;;;;;;;4.66;85.07;97570.54;1648372;86;39148;-88
2022/02/06 10:59:47;;;;;;;;;;;;;;;4.68;85.26;97563.52;1651124;86;23929;-88
2022/02/06 11:02:27;;;;;;;;;;;;;;;4.71;85.45;97565.07;1651021;86;20593;-86
2022/02/06 11:05:02;;;;;;;;;;;;;;;4.74;85.62;97567.50;1648922;86;25355;-86
2022/02/06 11:07:31;;;;;;;;;;;;;;;4.76;85.78;97570.35;1647520;85;22273;-89
2022/02/06 11:10:10;;;;;;;;;;;;;;;4.79;85.95;97570.19;1652223;86;26662;-83
2022/02/06 11:12:38;;;;;;;;;;;;;;;4.81;86.10;97561.00;1648048;86;24514;-88
2022/02/06 11:15:06;;;;;;;;;;;;;;;4.86;86.26;97560.25;1650668;86;20497;-86
2022/02/06 11:17:36;;;;;;;;;;;;;;;4.87;86.44;97558.03;1653773;85;25451;-86
2022/02/06 11:20:03;;;;;;;;;;;;;;;4.88;86.53;97562.30;1649756;86;22109;-86
2022/02/06 11:22:29;;;;;;;;;;;;;;;4.88;86.64;97556.66;1651494;85;26980;-83
2022/02/06 11:24:57;;;;;;;;;;;;;;;4.87;86.71;97537.30;1649638;85;24521;-89
2022/02/06 11:27:24;;;;;;;;;;;;;;;4.88;86.82;97545.45;1650014;86;20589;-86
2022/02/06 11:29:50;;;;;;;;;;;;;;;4.89;86.91;97538.05;1652103;86;24729;-88
2022/02/06 11:32:16;;;;;;;;;;;;;;;4.90;87.01;97534.53;1651378;86;21912;-89
2022/02/06 11:34:43;;;;;;;;;;;;;;;4.90;87.08;97533.23;1649951;85;26035;-89
2022/02/06 11:45:49;;;;;;;;;;;;;;;4.95;87.46;97493.60;1630574;87;22744;-85
2022/02/06 11:48:17;;;;;;;;;;;;;;;4.98;87.55;97487.75;1626910;87;26696;-86
2022/02/06 11:50:50;;;;;;;;;;;;;;;5.01;87.65;97477.66;1633746;85;24543;-86
2022/02/06 11:53:26;;;;;;;;;;;;;;;4.99;87.66;97480.80;1620516;87;20428;-86
2022/02/06 11:55:53;;;;;;;;;;;;;;;5.00;87.71;97476.83;1588455;90;24789;-86
2022/02/06 11:58:25;;;;;;;;;;;;;;;5.03;87.74;97467.55;1629111;87;22155;-86
2022/02/06 12:01:09;;;;;;;;;;;;;;;5.04;87.74;97464.49;1589530;88;26003;-86
2022/02/06 12:03:49;;;;;;;;;;;;;;;5.06;87.76;97476.91;1625493;87;25221;-85
2022/02/06 12:06:16;;;;;;;;;;;;;;;5.10;87.80;97469.30;1628791;87;20254;-85
2022/02/06 12:08:44;;;;;;;;;;;;;;;5.13;87.84;97479.46;1619939;87;25018;-85
2022/02/06 12:11:12;;;;;;;;;;;;;;;5.16;87.82;97474.09;1611916;87;22075;-86
2022/02/06 12:13:38;;;;;;;;;;;;;;;5.19;87.85;97465.27;1607494;87;26867;-86
2022/02/06 12:16:07;;;;;;;;;;;;;;;5.21;87.83;97464.72;1610140;87;24413;-86
2022/02/06 12:18:37;;;;;;;;;;;;;;;5.22;87.81;97458.16;1605675;88;20275;-85
2022/02/06 12:21:12;;;;;;;;;;;;;;;5.24;87.75;97460.16;1609803;88;24770;-85
2022/02/06 12:23:43;;;;;;;;;;;;;;;5.23;87.64;97459.82;1614102;87;22095;-86
2022/02/06 12:26:30;;;;;;;;;;;;;;;5.25;87.54;97462.30;1618754;87;26210;-85
2022/02/06 12:28:59;;;;;;;;;;;;;;;5.28;87.47;97464.25;1616403;87;24612;-86
2022/02/06 12:31:32;;;;;;;;;;;;;;;5.33;87.45;97462.65;1614195;87;20288;-86
2022/02/06 12:37:07;;;;;;;;;;;;;;;5.35;87.42;97466.80;1593802;88;20289;-83
2022/02/06 12:39:23;;;;;;;;;;;;;;;5.38;87.43;97461.89;1601537;89;26030;-83
2022/02/06 12:41:52;;;;;;;;;;;;;;;5.33;87.35;97446.63;1603993;89;24460;-83
2022/02/06 12:44:19;;;;;;;;;;;;;;;5.30;87.26;97440.31;1606277;89;20311;-83
2022/02/06 12:46:47;;;;;;;;;;;;;;;5.28;87.21;97427.93;1628745;87;24927;-83
2022/02/06 12:49:17;;;;;;;;;;;;;;;5.27;87.19;97434.05;1635810;86;21975;-82
2022/02/06 12:51:41;;;;;;;;;;;;;;;5.22;87.19;97432.22;1629994;86;26229;-83
2022/02/06 12:54:09;;;;;;;;;;;;;;;5.19;87.20;97415.53;1622806;87;20346;-83
2022/02/06 12:56:39;;;;;;;;;;;;;;;5.18;87.21;97412.60;1617864;87;20222;-83
2022/02/06 12:59:06;;;;;;;;;;;;;;;5.13;87.24;97412.04;1593213;88;24937;-82
2022/02/06 13:01:40;;;;;;;;;;;;;;;5.09;87.29;97397.61;1587257;89;21964;-82
2022/02/06 13:04:11;;;;;;;;;;;;;;;5.05;87.32;97384.48;1620428;87;26029;-83
2022/02/06 13:06:38;;;;;;;;;;;;;;;5.02;87.38;97389.39;1627199;87;23875;-83
2022/02/06 13:09:10;;;;;;;;;;;;;;;5.01;87.45;97397.29;1620827;87;21118;-83
2022/02/06 13:11:43;;;;;;;;;;;;;;;5.01;87.54;97376.55;1626673;87;24966;-82
2022/02/06 13:14:27;;;;;;;;;;;;;;;5.02;87.65;97371.24;1618201;87;21988;-84
2022/02/06 13:16:56;;;;;;;;;;;;;;;5.04;87.78;97371.16;1624491;87;25915;-84
2022/02/06 13:19:29;;;;;;;;;;;;;;;5.05;87.95;97349.02;1622218;87;24560;-84
2022/02/06 13:22:11;;;;;;;;;;;;;;;5.07;88.08;97339.02;1618892;87;20252;-83
2022/02/06 13:24:54;;;;;;;;;;;;;;;5.09;88.20;97335.84;1597482;88;24890;-83
2022/02/06 13:32:53;;;;;;;;;;;;;;;5.17;88.45;97295.53;1619759;87;24469;-84
2022/02/06 13:35:38;;;;;;;;;;;;;;;5.18;88.49;97302.38;1621248;87;20249;-87
2022/02/06 13:37:57;;;;;;;;;;;;;;;5.21;88.55;97300.87;1620990;87;25428;-88
2022/02/06 13:40:27;;;;;;;;;;;;;;;5.23;88.62;97299.48;1624913;87;21947;-88
2022/02/06 13:43:00;;;;;;;;;;;;;;;5.27;88.66;97294.44;1626568;87;21342;-88
2022/02/06 13:45:29;;;;;;;;;;;;;;;5.29;88.72;97302.96;1625018;87;24526;-88
2022/02/06 13:48:07;;;;;;;;;;;;;;;5.34;88.79;97306.91;1632634;87;20322;-88
2022/02/06 13:50:35;;;;;;;;;;;;;;;5.37;88.86;97306.69;1628159;87;24739;-87
2022/02/06 13:53:09;;;;;;;;;;;;;;;5.43;88.95;97306.28;1632062;85;22018;-87
2022/02/06 13:55:37;;;;;;;;;;;;;;;5.47;89.03;97297.81;1615343;87;26071;-87
2022/02/06 13:58:04;;;;;;;;;;;;;;;5.51;89.06;97304.45;1644605;86;24424;-88
2022/02/06 14:00:30;;;;;;;;;;;;;;;5.54;89.04;97299.54;1644342;85;20384;-86
2022/02/06 14:02:56;;;;;;;;;;;;;;;5.57;89.03;97301.91;1644035;85;25046;-85
2022/02/06 14:05:26;;;;;;;;;;;;;;;5.62;89.04;97307.16;1645092;85;22217;-84
2022/02/06 14:08:02;;;;;;;;;;;;;;;5.66;89.06;97296.95;1646656;85;25937;-85
2022/02/06 14:10:39;;;;;;;;;;;;;;;5.69;89.06;97297.19;1642172;85;25275;-84
2022/02/06 14:12:57;;;;;;;;;;;;;;;5.74;89.03;97299.00;1644866;85;20235;-85
2022/02/06 14:15:27;;;;;;;;;;;;;;;5.74;88.94;97283.43;1644882;84;24991;-86
2022/02/06 14:17:56;;;;;;;;;;;;;;;5.78;88.87;97291.39;1645228;86;22059;-85
2022/02/06 14:20:27;;;;;;;;;;;;;;;5.78;88.77;97275.31;1644755;86;26779;-84
2022/02/06 14:22:54;;;;;;;;;;;;;;;5.80;88.67;97284.31;1647260;86;24583;-84
2022/02/06 14:25:32;;;;;;;;;;;;;;;5.81;88.63;97269.09;1647608;87;20255;-86
2022/02/06 14:27:59;;;;;;;;;;;;;;;5.83;88.57;97265.48;1646714;86;25553;-84
2022/02/06 14:30:31;;;;;;;;;;;;;;;5.82;88.49;97260.38;1648909;85;22192;-84
2022/02/06 14:32:59;;;;;;;;;;;;;;;5.80;88.44;97250.09;1647075;85;27019;-84
2022/02/06 14:35:47;;;;;;;;;;;;;;;5.79;88.37;97239.80;1647824;85;25105;-84
2022/02/06 14:38:22;;;;;;;;;;;;;;;5.78;88.33;97231.69;1645448;86;20521;-86
2022/02/06 14:41:17;;;;;;;;;;;;;;;5.77;88.24;97232.16;1646405;86;24824;-86
2022/02/06 14:43:36;;;;;;;;;;;;;;;5.77;88.17;97223.53;1646198;85;22004;-86
2022/02/06 14:46:03;;;;;;;;;;;;;;;5.75;88.09;97217.61;1649581;85;26621;-86
2022/02/06 14:48:30;;;;;;;;;;;;;;;5.76;87.98;97223.16;1645530;85;24031;-86
2022/02/06 14:50:56;;;;;;;;;;;;;;;5.79;87.92;97215.15;1646184;87;20278;-86
2022/02/06 14:53:23;;;;;;;;;;;;;;;5.79;87.84;97200.87;1645598;85;24767;-88
2022/02/06 14:55:51;;;;;;;;;;;;;;;5.78;87.74;97210.92;1651830;86;22067;-87
2022/02/06 14:58:19;;;;;;;;;;;;;;;5.78;87.64;97202.63;1650567;86;26067;-89
2022/02/06 15:00:45;;;;;;;;;;;;;;;5.77;87.58;97193.21;1649941;86;24402;-89
2022/02/06 15:03:13;;;;;;;;;;;;;;;5.74;87.45;97195.17;1647252;86;20339;-89
2022/02/06 15:05:42;;;;;;;;;;;;;;;5.72;87.34;97184.09;1655902;86;25115;-89